PWSweather.com
Personal Weather Stations
Station Observations
SHAHALMS1
Eftra, Falkenberg, HA

EftraFalkenberg, HA

Lat: 56.85, Lon: 12.65

Elevation: 140

Station Type:

http://hem.passagen.se/risarp101

High Low Average
Temperature 77.0°F25.0°C 58.5°F14.7°C 66.3°F19.1°C
Dew Point 61.3°F16.3°C 49.5°F9.7°C 55.9°F13.3°C
Winds 8.0 mph 12.9 kmh Calm Calm 4.0 mph S6.4 kmh S
Wind Gusts 19.3 mph31.1 kmh -- 10.0 mph16.1 kmh
Humidity 90% 54% 70%
Pressure 29.92 in1013.2 mb 29.53 in1000.0 mb -
Precipitation 0.00 in0.0 mm - -
Hour Temp Dew Point Humidity Winds Wind Gusts Pressure Precip Precip Rate Daily Precip Total
12:00 AM 59.9°F15.5°C 50.1°F10.1°C 70% 5.9 mph ESE9.5 kmh ESE 13.6 mph21.9 kmh 29.92 in1013.2 mb 0.00 in0.0 mm 0.00 in0.0 mm 0.00 in0.0 mm
12:01 AM 60.1°F15.6°C 50.3°F10.2°C 70% 6.3 mph ESE10.1 kmh ESE 13.6 mph21.9 kmh 29.92 in1013.2 mb 0.00 in0.0 mm 0.00 in0.0 mm 0.00 in0.0 mm
12:02 AM 60.1°F15.6°C 50.3°F10.2°C 70% 5.7 mph E9.2 kmh E 13.6 mph21.9 kmh 29.92 in1013.2 mb 0.00 in0.0 mm 0.00 in0.0 mm 0.00 in0.0 mm
12:03 AM 60.1°F15.6°C 50.3°F10.2°C 70% 5.6 mph E9.0 kmh E 13.6 mph21.9 kmh 29.92 in1013.2 mb 0.00 in0.0 mm 0.00 in0.0 mm 0.00 in0.0 mm
12:04 AM 60.1°F15.6°C 49.9°F9.9°C 69% 5.5 mph E8.9 kmh E 13.6 mph21.9 kmh 29.92 in1013.2 mb 0.00 in0.0 mm 0.00 in0.0 mm 0.00 in0.0 mm
12:05 AM 60.1°F15.6°C 49.9°F9.9°C 69% 6.1 mph E9.8 kmh E 13.6 mph21.9 kmh 29.92 in1013.2 mb 0.00 in0.0 mm 0.00 in0.0 mm 0.00 in0.0 mm
12:06 AM 60.1°F15.6°C 49.9°F9.9°C 69% 6.2 mph E10.0 kmh E 13.6 mph21.9 kmh 29.92 in1013.2 mb 0.00 in0.0 mm 0.00 in0.0 mm 0.00 in0.0 mm
12:07 AM 60.1°F15.6°C 49.9°F9.9°C 69% 6.3 mph E10.1 kmh E 13.6 mph21.9 kmh 29.92 in1013.2 mb 0.00 in0.0 mm 0.00 in0.0 mm 0.00 in0.0 mm
12:08 AM 60.1°F15.6°C 49.9°F9.9°C 69% 5.9 mph E9.5 kmh E 10.4 mph16.7 kmh 29.92 in1013.2 mb 0.00 in0.0 mm 0.00 in0.0 mm 0.00 in0.0 mm
12:09 AM 60.1°F15.6°C 49.9°F9.9°C 69% 6.6 mph E10.6 kmh E 15.4 mph24.8 kmh 29.92 in1013.2 mb 0.00 in0.0 mm 0.00 in0.0 mm 0.00 in0.0 mm
12:10 AM 60.1°F15.6°C 49.9°F9.9°C 69% 6.7 mph E10.8 kmh E 15.4 mph24.8 kmh 29.92 in1013.2 mb 0.00 in0.0 mm 0.00 in0.0 mm 0.00 in0.0 mm
12:11 AM 60.1°F15.6°C 49.9°F9.9°C 69% 7.2 mph E11.6 kmh E 15.4 mph24.8 kmh 29.92 in1013.2 mb 0.00 in0.0 mm 0.00 in0.0 mm 0.00 in0.0 mm
12:12 AM 60.1°F15.6°C 49.9°F9.9°C 69% 7.7 mph E12.4 kmh E 15.4 mph24.8 kmh 29.92 in1013.2 mb 0.00 in0.0 mm 0.00 in0.0 mm 0.00 in0.0 mm
12:13 AM 60.1°F15.6°C 49.9°F9.9°C 69% 8.0 mph E12.9 kmh E 15.4 mph24.8 kmh 29.92 in1013.2 mb 0.00 in0.0 mm 0.00 in0.0 mm 0.00 in0.0 mm
12:14 AM 60.1°F15.6°C 49.5°F9.7°C 68% 7.5 mph E12.1 kmh E 15.4 mph24.8 kmh 29.92 in1013.2 mb 0.00 in0.0 mm 0.00 in0.0 mm 0.00 in0.0 mm
12:15 AM 60.1°F15.6°C 49.9°F9.9°C 69% 6.8 mph E10.9 kmh E 15.4 mph24.8 kmh 29.92 in1013.2 mb 0.00 in0.0 mm 0.00 in0.0 mm 0.00 in0.0 mm
12:16 AM 60.1°F15.6°C 49.9°F9.9°C 69% 6.4 mph ESE10.3 kmh ESE 15.4 mph24.8 kmh 29.92 in1013.2 mb 0.00 in0.0 mm 0.00 in0.0 mm 0.00 in0.0 mm
12:17 AM 60.1°F15.6°C 49.5°F9.7°C 68% 6.1 mph ESE9.8 kmh ESE 15.4 mph24.8 kmh 29.92 in1013.2 mb 0.00 in0.0 mm 0.00 in0.0 mm 0.00 in0.0 mm
12:18 AM 60.1°F15.6°C 49.9°F9.9°C 69% 5.4 mph ESE8.7 kmh ESE 15.4 mph24.8 kmh 29.92 in1013.2 mb 0.00 in0.0 mm 0.00 in0.0 mm 0.00 in0.0 mm
12:19 AM 60.3°F15.7°C 50.0°F10.0°C 69% 5.3 mph ESE8.5 kmh ESE 15.4 mph24.8 kmh 29.92 in1013.2 mb 0.00 in0.0 mm 0.00 in0.0 mm 0.00 in0.0 mm
12:20 AM 60.1°F15.6°C 49.9°F9.9°C 69% 4.3 mph SE6.9 kmh SE 11.8 mph19.0 kmh 29.92 in1013.2 mb 0.00 in0.0 mm 0.00 in0.0 mm 0.00 in0.0 mm
12:21 AM 60.1°F15.6°C 49.9°F9.9°C 69% 4.5 mph SSE7.2 kmh SSE 12.9 mph20.8 kmh 29.92 in1013.2 mb 0.00 in0.0 mm 0.00 in0.0 mm 0.00 in0.0 mm
12:22 AM 60.1°F15.6°C 49.9°F9.9°C 69% 4.5 mph SE7.2 kmh SE 12.9 mph20.8 kmh 29.89 in1012.2 mb 0.00 in0.0 mm 0.00 in0.0 mm 0.00 in0.0 mm
12:23 AM 60.1°F15.6°C 49.9°F9.9°C 69% 3.8 mph S6.1 kmh S 12.9 mph20.8 kmh 29.89 in1012.2 mb 0.00 in0.0 mm 0.00 in0.0 mm 0.00 in0.0 mm
12:24 AM 60.1°F15.6°C 50.3°F10.2°C 70% 3.9 mph S6.3 kmh S 12.9 mph20.8 kmh 29.89 in1012.2 mb 0.00 in0.0 mm 0.00 in0.0 mm 0.00 in0.0 mm
12:25 AM 59.9°F15.5°C 50.1°F10.1°C 70% 4.2 mph SSE6.8 kmh SSE 12.9 mph20.8 kmh 29.89 in1012.2 mb 0.00 in0.0 mm 0.00 in0.0 mm 0.00 in0.0 mm
12:26 AM 59.9°F15.5°C 50.1°F10.1°C 70% 4.4 mph SE7.1 kmh SE 12.9 mph20.8 kmh 29.89 in1012.2 mb 0.00 in0.0 mm 0.00 in0.0 mm 0.00 in0.0 mm
12:27 AM 59.7°F15.4°C 49.9°F9.9°C 70% 4.9 mph SE7.9 kmh SE 12.9 mph20.8 kmh 29.89 in1012.2 mb 0.00 in0.0 mm 0.00 in0.0 mm 0.00 in0.0 mm
12:28 AM 59.7°F15.4°C 49.9°F9.9°C 70% 5.7 mph SE9.2 kmh SE 12.9 mph20.8 kmh 29.89 in1012.2 mb 0.00 in0.0 mm 0.00 in0.0 mm 0.00 in0.0 mm
12:29 AM 59.7°F15.4°C 49.9°F9.9°C 70% 5.7 mph SE9.2 kmh SE 12.9 mph20.8 kmh 29.89 in1012.2 mb 0.00 in0.0 mm 0.00 in0.0 mm 0.00 in0.0 mm
12:30 AM 59.5°F15.3°C 49.7°F9.8°C 70% 5.7 mph ESE9.2 kmh ESE 12.9 mph20.8 kmh 29.89 in1012.2 mb 0.00 in0.0 mm 0.00 in0.0 mm 0.00 in0.0 mm
07:50 AM 75.7°F24.3°C 58.4°F14.7°C 55% 4.0 mph S6.4 kmh S 16.5 mph26.6 kmh 29.56 in1001.0 mb 0.00 in0.0 mm 0.00 in0.0 mm 0.00 in0.0 mm
08:00 AM 76.8°F24.9°C 59.4°F15.2°C 55% 5.9 mph S9.5 kmh S 14.0 mph22.5 kmh 29.53 in1000.0 mb 0.00 in0.0 mm 0.00 in0.0 mm 0.00 in0.0 mm
08:10 AM 76.5°F24.7°C 59.1°F15.1°C 55% 4.1 mph S6.6 kmh S 11.8 mph19.0 kmh 29.53 in1000.0 mb 0.00 in0.0 mm 0.00 in0.0 mm 0.00 in0.0 mm
08:20 AM 76.5°F24.7°C 58.6°F14.8°C 54% 3.9 mph SSE6.3 kmh SSE 10.0 mph16.1 kmh 29.53 in1000.0 mb 0.00 in0.0 mm 0.00 in0.0 mm 0.00 in0.0 mm
08:30 AM 74.8°F23.8°C 58.1°F14.5°C 56% 2.7 mph S4.3 kmh S 8.9 mph14.3 kmh 29.56 in1001.0 mb 0.00 in0.0 mm 0.00 in0.0 mm 0.00 in0.0 mm
08:40 AM 77.0°F25.0°C 59.6°F15.3°C 55% 2.4 mph S3.9 kmh S 11.8 mph19.0 kmh 29.56 in1001.0 mb 0.00 in0.0 mm 0.00 in0.0 mm 0.00 in0.0 mm
08:50 AM 76.3°F24.6°C 58.9°F14.9°C 55% 5.5 mph S8.9 kmh S 11.8 mph19.0 kmh 29.56 in1001.0 mb 0.00 in0.0 mm 0.00 in0.0 mm 0.00 in0.0 mm
09:00 AM 76.6°F24.8°C 59.8°F15.4°C 56% 4.3 mph SE6.9 kmh SE 12.5 mph20.1 kmh 29.56 in1001.0 mb 0.00 in0.0 mm 0.00 in0.0 mm 0.00 in0.0 mm
09:10 AM 76.1°F24.5°C 59.3°F15.2°C 56% 5.1 mph S8.2 kmh S 16.1 mph25.9 kmh 29.56 in1001.0 mb 0.00 in0.0 mm 0.00 in0.0 mm 0.00 in0.0 mm
09:20 AM 74.8°F23.8°C 58.6°F14.8°C 57% 4.9 mph S7.9 kmh S 14.0 mph22.5 kmh 29.56 in1001.0 mb 0.00 in0.0 mm 0.00 in0.0 mm 0.00 in0.0 mm
09:30 AM 74.5°F23.6°C 59.2°F15.1°C 59% 2.8 mph S4.5 kmh S 7.5 mph12.1 kmh 29.59 in1002.0 mb 0.00 in0.0 mm 0.00 in0.0 mm 0.00 in0.0 mm
09:40 AM 73.9°F23.3°C 59.2°F15.1°C 60% 3.1 mph S5.0 kmh S 10.4 mph16.7 kmh 29.59 in1002.0 mb 0.00 in0.0 mm 0.00 in0.0 mm 0.00 in0.0 mm
09:50 AM 73.8°F23.2°C 59.5°F15.3°C 61% 3.8 mph S6.1 kmh S 12.2 mph19.6 kmh 29.59 in1002.0 mb 0.00 in0.0 mm 0.00 in0.0 mm 0.00 in0.0 mm
10:00 AM 74.3°F23.5°C 60.4°F15.8°C 62% 4.2 mph S6.8 kmh S 12.5 mph20.1 kmh 29.59 in1002.0 mb 0.00 in0.0 mm 0.00 in0.0 mm 0.00 in0.0 mm
10:10 AM 74.5°F23.6°C 60.1°F15.6°C 61% 5.9 mph S9.5 kmh S 14.0 mph22.5 kmh 29.59 in1002.0 mb 0.00 in0.0 mm 0.00 in0.0 mm 0.00 in0.0 mm
10:20 AM 74.7°F23.7°C 60.3°F15.7°C 61% 5.9 mph S9.5 kmh S 16.1 mph25.9 kmh 29.59 in1002.0 mb 0.00 in0.0 mm 0.00 in0.0 mm 0.00 in0.0 mm
10:30 AM 74.5°F23.6°C 60.1°F15.6°C 61% 5.7 mph S9.2 kmh S 12.2 mph19.6 kmh 29.62 in1003.0 mb 0.00 in0.0 mm 0.00 in0.0 mm 0.00 in0.0 mm
10:40 AM 75.2°F24.0°C 60.8°F16.0°C 61% 4.8 mph SSW7.7 kmh SSW 9.7 mph15.6 kmh 29.62 in1003.0 mb 0.00 in0.0 mm 0.00 in0.0 mm 0.00 in0.0 mm
10:50 AM 75.6°F24.2°C 60.7°F15.9°C 60% 6.5 mph S10.5 kmh S 19.3 mph31.1 kmh 29.62 in1003.0 mb 0.00 in0.0 mm 0.00 in0.0 mm 0.00 in0.0 mm
11:00 AM 75.6°F24.2°C 60.2°F15.7°C 59% 5.9 mph S9.5 kmh S 16.1 mph25.9 kmh 29.62 in1003.0 mb 0.00 in0.0 mm 0.00 in0.0 mm 0.00 in0.0 mm
11:10 AM 75.7°F24.3°C 60.9°F16.1°C 60% 6.1 mph S9.8 kmh S 17.5 mph28.2 kmh 29.62 in1003.0 mb 0.00 in0.0 mm 0.00 in0.0 mm 0.00 in0.0 mm
11:20 AM 75.7°F24.3°C 61.3°F16.3°C 61% 7.8 mph S12.6 kmh S 16.1 mph25.9 kmh 29.62 in1003.0 mb 0.00 in0.0 mm 0.00 in0.0 mm 0.00 in0.0 mm
11:30 AM 76.3°F24.6°C 60.9°F16.1°C 59% 6.3 mph S10.1 kmh S 12.9 mph20.8 kmh 29.62 in1003.0 mb 0.00 in0.0 mm 0.00 in0.0 mm 0.00 in0.0 mm
11:40 AM 76.1°F24.5°C 60.2°F15.7°C 58% 6.6 mph S10.6 kmh S 15.4 mph24.8 kmh 29.62 in1003.0 mb 0.00 in0.0 mm 0.00 in0.0 mm 0.00 in0.0 mm
11:50 AM 75.2°F24.0°C 59.4°F15.2°C 58% 7.1 mph S11.4 kmh S 15.7 mph25.3 kmh 29.62 in1003.0 mb 0.00 in0.0 mm 0.00 in0.0 mm 0.00 in0.0 mm
12:00 PM 75.2°F24.0°C 59.9°F15.5°C 59% 5.7 mph SW9.2 kmh SW 17.5 mph28.2 kmh 29.62 in1003.0 mb 0.00 in0.0 mm 0.00 in0.0 mm 0.00 in0.0 mm
12:10 PM 75.0°F23.9°C 60.2°F15.7°C 60% 4.8 mph SSW7.7 kmh SSW 14.0 mph22.5 kmh 29.62 in1003.0 mb 0.00 in0.0 mm 0.00 in0.0 mm 0.00 in0.0 mm
12:20 PM 73.9°F23.3°C 59.2°F15.1°C 60% 4.1 mph SSW6.6 kmh SSW 9.7 mph15.6 kmh 29.62 in1003.0 mb 0.00 in0.0 mm 0.00 in0.0 mm 0.00 in0.0 mm
12:30 PM 72.7°F22.6°C 58.5°F14.7°C 61% 3.9 mph SW6.3 kmh SW 8.6 mph13.8 kmh 29.62 in1003.0 mb 0.00 in0.0 mm 0.00 in0.0 mm 0.00 in0.0 mm
12:40 PM 71.6°F22.0°C 57.4°F14.1°C 61% 5.3 mph S8.5 kmh S 10.0 mph16.1 kmh 29.62 in1003.0 mb 0.00 in0.0 mm 0.00 in0.0 mm 0.00 in0.0 mm
12:50 PM 70.3°F21.3°C 56.7°F13.7°C 62% 4.3 mph S6.9 kmh S 10.0 mph16.1 kmh 29.65 in1004.1 mb 0.00 in0.0 mm 0.00 in0.0 mm 0.00 in0.0 mm
01:00 PM 70.2°F21.2°C 57.4°F14.1°C 64% 3.2 mph SW5.1 kmh SW 8.6 mph13.8 kmh 29.62 in1003.0 mb 0.00 in0.0 mm 0.00 in0.0 mm 0.00 in0.0 mm
01:10 PM 71.4°F21.9°C 59.0°F15.0°C 65% 4.5 mph S7.2 kmh S 12.2 mph19.6 kmh 29.62 in1003.0 mb 0.00 in0.0 mm 0.00 in0.0 mm 0.00 in0.0 mm
01:20 PM 73.6°F23.1°C 60.6°F15.9°C 64% 5.5 mph SW8.9 kmh SW 13.6 mph21.9 kmh 29.62 in1003.0 mb 0.00 in0.0 mm 0.00 in0.0 mm 0.00 in0.0 mm
01:30 PM 74.7°F23.7°C 60.3°F15.7°C 61% 5.7 mph SW9.2 kmh SW 14.0 mph22.5 kmh 29.59 in1002.0 mb 0.00 in0.0 mm 0.00 in0.0 mm 0.00 in0.0 mm
01:40 PM 74.7°F23.7°C 60.3°F15.7°C 61% 5.1 mph SW8.2 kmh SW 12.5 mph20.1 kmh 29.59 in1002.0 mb 0.00 in0.0 mm 0.00 in0.0 mm 0.00 in0.0 mm
01:50 PM 74.7°F23.7°C 59.9°F15.5°C 60% 6.5 mph SW10.5 kmh SW 15.4 mph24.8 kmh 29.62 in1003.0 mb 0.00 in0.0 mm 0.00 in0.0 mm 0.00 in0.0 mm
02:00 PM 74.1°F23.4°C 59.3°F15.2°C 60% 5.1 mph SW8.2 kmh SW 13.6 mph21.9 kmh 29.62 in1003.0 mb 0.00 in0.0 mm 0.00 in0.0 mm 0.00 in0.0 mm
02:10 PM 73.0°F22.8°C 58.3°F14.6°C 60% 5.8 mph SSW9.3 kmh SSW 14.0 mph22.5 kmh 29.62 in1003.0 mb 0.00 in0.0 mm 0.00 in0.0 mm 0.00 in0.0 mm
02:20 PM 73.6°F23.1°C 59.3°F15.2°C 61% 3.7 mph SW6.0 kmh SW 11.5 mph18.5 kmh 29.59 in1002.0 mb 0.00 in0.0 mm 0.00 in0.0 mm 0.00 in0.0 mm
02:30 PM 72.9°F22.7°C 58.2°F14.6°C 60% 4.9 mph WSW7.9 kmh WSW 12.2 mph19.6 kmh 29.62 in1003.0 mb 0.00 in0.0 mm 0.00 in0.0 mm 0.00 in0.0 mm
02:40 PM 72.7°F22.6°C 58.0°F14.4°C 60% 6.6 mph SSW10.6 kmh SSW 13.6 mph21.9 kmh 29.62 in1003.0 mb 0.00 in0.0 mm 0.00 in0.0 mm 0.00 in0.0 mm
02:50 PM 71.2°F21.8°C 56.6°F13.7°C 60% 8.0 mph S12.9 kmh S 18.3 mph29.5 kmh 29.65 in1004.1 mb 0.00 in0.0 mm 0.00 in0.0 mm 0.00 in0.0 mm
03:00 PM 70.0°F21.1°C 55.9°F13.3°C 61% 6.7 mph S10.8 kmh S 13.6 mph21.9 kmh 29.65 in1004.1 mb 0.00 in0.0 mm 0.00 in0.0 mm 0.00 in0.0 mm
03:10 PM 69.6°F20.9°C 56.5°F13.6°C 63% 6.0 mph S9.7 kmh S 14.3 mph23.0 kmh 29.65 in1004.1 mb 0.00 in0.0 mm 0.00 in0.0 mm 0.00 in0.0 mm
03:20 PM 68.9°F20.5°C 56.2°F13.4°C 64% 6.2 mph SW10.0 kmh SW 14.7 mph23.7 kmh 29.65 in1004.1 mb 0.00 in0.0 mm 0.00 in0.0 mm 0.00 in0.0 mm
03:30 PM 67.8°F19.9°C 56.0°F13.3°C 66% 5.6 mph SW9.0 kmh SW 12.9 mph20.8 kmh 29.65 in1004.1 mb 0.00 in0.0 mm 0.00 in0.0 mm 0.00 in0.0 mm
03:40 PM 66.6°F19.2°C 56.1°F13.4°C 69% 4.6 mph S7.4 kmh S 11.1 mph17.9 kmh 29.65 in1004.1 mb 0.00 in0.0 mm 0.00 in0.0 mm 0.00 in0.0 mm
03:50 PM 66.4°F19.1°C 57.1°F13.9°C 72% 2.9 mph S4.7 kmh S 8.6 mph13.8 kmh 29.62 in1003.0 mb 0.00 in0.0 mm 0.00 in0.0 mm 0.00 in0.0 mm
04:00 PM 66.6°F19.2°C 57.6°F14.2°C 73% 0.6 mph S1.0 kmh S 5.7 mph9.2 kmh 29.62 in1003.0 mb 0.00 in0.0 mm 0.00 in0.0 mm 0.00 in0.0 mm
04:10 PM 67.8°F19.9°C 59.6°F15.3°C 75% 0.2 mph NW0.3 kmh NW 4.3 mph6.9 kmh 29.62 in1003.0 mb 0.00 in0.0 mm 0.00 in0.0 mm 0.00 in0.0 mm
04:20 PM 68.0°F20.0°C 59.0°F15.0°C 73% 0.4 mph SW0.6 kmh SW 4.3 mph6.9 kmh 29.62 in1003.0 mb 0.00 in0.0 mm 0.00 in0.0 mm 0.00 in0.0 mm
04:30 PM 69.1°F20.6°C 60.1°F15.6°C 73% 3.4 mph WSW5.5 kmh WSW 9.7 mph15.6 kmh 29.59 in1002.0 mb 0.00 in0.0 mm 0.00 in0.0 mm 0.00 in0.0 mm
04:40 PM 68.9°F20.5°C 59.1°F15.1°C 71% 2.9 mph WSW4.7 kmh WSW 11.5 mph18.5 kmh 29.59 in1002.0 mb 0.00 in0.0 mm 0.00 in0.0 mm 0.00 in0.0 mm
04:50 PM 68.7°F20.4°C 58.5°F14.7°C 70% 4.1 mph SSW6.6 kmh SSW 9.3 mph15.0 kmh 29.62 in1003.0 mb 0.00 in0.0 mm 0.00 in0.0 mm 0.00 in0.0 mm
05:00 PM 68.2°F20.1°C 58.0°F14.4°C 70% 3.1 mph SW5.0 kmh SW 8.9 mph14.3 kmh 29.62 in1003.0 mb 0.00 in0.0 mm 0.00 in0.0 mm 0.00 in0.0 mm
05:10 PM 67.3°F19.6°C 57.2°F14.0°C 70% 3.8 mph S6.1 kmh S 8.6 mph13.8 kmh 29.62 in1003.0 mb 0.00 in0.0 mm 0.00 in0.0 mm 0.00 in0.0 mm
05:20 PM 66.6°F19.2°C 56.9°F13.8°C 71% 4.0 mph S6.4 kmh S 9.3 mph15.0 kmh 29.62 in1003.0 mb 0.00 in0.0 mm 0.00 in0.0 mm 0.00 in0.0 mm
05:30 PM 66.0°F18.9°C 56.7°F13.7°C 72% 4.2 mph S6.8 kmh S 10.4 mph16.7 kmh 29.65 in1004.1 mb 0.00 in0.0 mm 0.00 in0.0 mm 0.00 in0.0 mm
05:40 PM 65.8°F18.8°C 56.9°F13.8°C 73% 3.7 mph S6.0 kmh S 8.9 mph14.3 kmh 29.65 in1004.1 mb 0.00 in0.0 mm 0.00 in0.0 mm 0.00 in0.0 mm
05:50 PM 65.7°F18.7°C 56.8°F13.8°C 73% 2.3 mph SW3.7 kmh SW 9.3 mph15.0 kmh 29.65 in1004.1 mb 0.00 in0.0 mm 0.00 in0.0 mm 0.00 in0.0 mm
06:00 PM 65.3°F18.5°C 56.4°F13.6°C 73% 3.5 mph SW5.6 kmh SW 7.9 mph12.7 kmh 29.65 in1004.1 mb 0.00 in0.0 mm 0.00 in0.0 mm 0.00 in0.0 mm
06:10 PM 64.8°F18.2°C 56.3°F13.5°C 74% 2.4 mph SW3.9 kmh SW 8.9 mph14.3 kmh 29.65 in1004.1 mb 0.00 in0.0 mm 0.00 in0.0 mm 0.00 in0.0 mm
06:20 PM 64.6°F18.1°C 56.5°F13.6°C 75% 0.2 mph W0.3 kmh W 3.9 mph6.3 kmh 29.62 in1003.0 mb 0.00 in0.0 mm 0.00 in0.0 mm 0.00 in0.0 mm
06:30 PM 64.4°F18.0°C 56.7°F13.7°C 76% 0.5 mph SSW0.8 kmh SSW 4.7 mph7.6 kmh 29.62 in1003.0 mb 0.00 in0.0 mm 0.00 in0.0 mm 0.00 in0.0 mm
06:40 PM 64.2°F17.9°C 56.5°F13.6°C 76% 1.1 mph W1.8 kmh W 5.4 mph8.7 kmh 29.62 in1003.0 mb 0.00 in0.0 mm 0.00 in0.0 mm 0.00 in0.0 mm
06:50 PM 63.7°F17.6°C 56.0°F13.3°C 76% 1.1 mph NW1.8 kmh NW 6.8 mph10.9 kmh 29.62 in1003.0 mb 0.00 in0.0 mm 0.00 in0.0 mm 0.00 in0.0 mm
07:00 PM 63.5°F17.5°C 56.2°F13.4°C 77% 0.9 mph W1.4 kmh W 7.5 mph12.1 kmh 29.59 in1002.0 mb 0.00 in0.0 mm 0.00 in0.0 mm 0.00 in0.0 mm
07:10 PM 63.3°F17.4°C 56.3°F13.5°C 78% 0.2 mph W0.3 kmh W 3.2 mph5.1 kmh 29.59 in1002.0 mb 0.00 in0.0 mm 0.00 in0.0 mm 0.00 in0.0 mm
07:20 PM 63.3°F17.4°C 56.3°F13.5°C 78% 0.1 mph WNW0.2 kmh WNW 4.3 mph6.9 kmh 29.59 in1002.0 mb 0.00 in0.0 mm 0.00 in0.0 mm 0.00 in0.0 mm
07:30 PM 63.1°F17.3°C 56.5°F13.6°C 79% Calm Calm -- 29.62 in1003.0 mb 0.00 in0.0 mm 0.00 in0.0 mm 0.00 in0.0 mm
07:40 PM 62.8°F17.1°C 56.5°F13.6°C 80% 1.0 mph S1.6 kmh S 6.1 mph9.8 kmh 29.62 in1003.0 mb 0.00 in0.0 mm 0.00 in0.0 mm 0.00 in0.0 mm
07:50 PM 62.6°F17.0°C 56.3°F13.5°C 80% 2.3 mph WSW3.7 kmh WSW 6.8 mph10.9 kmh 29.65 in1004.1 mb 0.00 in0.0 mm 0.00 in0.0 mm 0.00 in0.0 mm
08:00 PM 62.2°F16.8°C 56.3°F13.5°C 81% 3.6 mph WSW5.8 kmh WSW 7.9 mph12.7 kmh 29.65 in1004.1 mb 0.00 in0.0 mm 0.00 in0.0 mm 0.00 in0.0 mm
08:10 PM 61.9°F16.6°C 56.3°F13.5°C 82% 0.9 mph WSW1.4 kmh WSW 4.3 mph6.9 kmh 29.65 in1004.1 mb 0.00 in0.0 mm 0.00 in0.0 mm 0.00 in0.0 mm
08:20 PM 61.7°F16.5°C 56.5°F13.6°C 83% 0.4 mph W0.6 kmh W 6.1 mph9.8 kmh 29.68 in1005.1 mb 0.00 in0.0 mm 0.00 in0.0 mm 0.00 in0.0 mm
08:30 PM 61.3°F16.3°C 56.1°F13.4°C 83% Calm Calm -- 29.68 in1005.1 mb 0.00 in0.0 mm 0.00 in0.0 mm 0.00 in0.0 mm
08:40 PM 61.2°F16.2°C 56.3°F13.5°C 84% Calm Calm -- 29.68 in1005.1 mb 0.00 in0.0 mm 0.00 in0.0 mm 0.00 in0.0 mm
08:50 PM 60.8°F16.0°C 56.3°F13.5°C 85% Calm Calm -- 29.68 in1005.1 mb 0.00 in0.0 mm 0.00 in0.0 mm 0.00 in0.0 mm
09:00 PM 60.8°F16.0°C 56.3°F13.5°C 85% Calm Calm -- 29.68 in1005.1 mb 0.00 in0.0 mm 0.00 in0.0 mm 0.00 in0.0 mm
09:10 PM 60.6°F15.9°C 56.4°F13.6°C 86% 0.1 mph S0.2 kmh S 1.8 mph2.9 kmh 29.68 in1005.1 mb 0.00 in0.0 mm 0.00 in0.0 mm 0.00 in0.0 mm
09:20 PM 60.6°F15.9°C 56.4°F13.6°C 86% Calm Calm -- 29.68 in1005.1 mb 0.00 in0.0 mm 0.00 in0.0 mm 0.00 in0.0 mm
09:30 PM 60.3°F15.7°C 56.4°F13.6°C 87% Calm Calm -- 29.68 in1005.1 mb 0.00 in0.0 mm 0.00 in0.0 mm 0.00 in0.0 mm
09:40 PM 60.1°F15.6°C 56.2°F13.4°C 87% Calm Calm -- 29.68 in1005.1 mb 0.00 in0.0 mm 0.00 in0.0 mm 0.00 in0.0 mm
09:50 PM 60.1°F15.6°C 56.2°F13.4°C 87% 0.5 mph W0.8 kmh W 4.3 mph6.9 kmh 29.68 in1005.1 mb 0.00 in0.0 mm 0.00 in0.0 mm 0.00 in0.0 mm
10:00 PM 59.9°F15.5°C 56.3°F13.5°C 88% 0.2 mph S0.3 kmh S 3.2 mph5.1 kmh 29.68 in1005.1 mb 0.00 in0.0 mm 0.00 in0.0 mm 0.00 in0.0 mm
10:10 PM 59.4°F15.2°C 55.8°F13.2°C 88% 0.5 mph SW0.8 kmh SW 3.6 mph5.8 kmh 29.68 in1005.1 mb 0.00 in0.0 mm 0.00 in0.0 mm 0.00 in0.0 mm
10:20 PM 59.0°F15.0°C 55.4°F13.0°C 88% Calm Calm -- 29.65 in1004.1 mb 0.00 in0.0 mm 0.00 in0.0 mm 0.00 in0.0 mm
10:30 PM 59.2°F15.1°C 55.9°F13.3°C 89% 0.3 mph W0.5 kmh W 4.7 mph7.6 kmh 29.68 in1005.1 mb 0.00 in0.0 mm 0.00 in0.0 mm 0.00 in0.0 mm
10:40 PM 59.2°F15.1°C 55.9°F13.3°C 89% 0.8 mph W1.3 kmh W 6.1 mph9.8 kmh 29.68 in1005.1 mb 0.00 in0.0 mm 0.00 in0.0 mm 0.00 in0.0 mm
10:50 PM 59.2°F15.1°C 55.9°F13.3°C 89% Calm Calm -- 29.68 in1005.1 mb 0.00 in0.0 mm 0.00 in0.0 mm 0.00 in0.0 mm
11:00 PM 59.0°F15.0°C 56.1°F13.4°C 90% 0.2 mph NW0.3 kmh NW 4.3 mph6.9 kmh 29.68 in1005.1 mb 0.00 in0.0 mm 0.00 in0.0 mm 0.00 in0.0 mm
11:10 PM 58.8°F14.9°C 55.6°F13.1°C 89% 0.4 mph NW0.6 kmh NW 5.4 mph8.7 kmh 29.68 in1005.1 mb 0.00 in0.0 mm 0.00 in0.0 mm 0.00 in0.0 mm
11:20 PM 58.8°F14.9°C 55.9°F13.3°C 90% 1.2 mph NW1.9 kmh NW 6.1 mph9.8 kmh 29.68 in1005.1 mb 0.00 in0.0 mm 0.00 in0.0 mm 0.00 in0.0 mm
11:30 PM 58.6°F14.8°C 55.4°F13.0°C 89% 1.3 mph W2.1 kmh W 7.5 mph12.1 kmh 29.68 in1005.1 mb 0.00 in0.0 mm 0.00 in0.0 mm 0.00 in0.0 mm
11:40 PM 58.6°F14.8°C 55.4°F13.0°C 89% 1.1 mph W1.8 kmh W 6.8 mph10.9 kmh 29.68 in1005.1 mb 0.00 in0.0 mm 0.00 in0.0 mm 0.00 in0.0 mm
11:50 PM 58.5°F14.7°C 55.2°F12.9°C 89% 0.4 mph WNW0.6 kmh WNW 5.4 mph8.7 kmh 29.68 in1005.1 mb 0.00 in0.0 mm 0.00 in0.0 mm 0.00 in0.0 mm